L'Hermione — FIQE — position and weather

sailwx.info

Track history (hours):
 
Tides and Currents Weather Stations Pressure Air Temp Water Temp Dewpoint Dewpoint Depression Visibility Wind Speed Wind Dir Waves Ship Positions

L'Hermione (France)

Ship's website: http://www.seaformation.com/#!follow-hermione/c6gz

Last reported at 2018-Jun-17 04:53 UTC. Time now 2018-Dec-12 06:28 UTC.
Position N 45°55' W 000°57'.
Warning: this ship's position is months out of date.

Length 66 m; draft 4.8 m.

Type: Sailing vessel. MMSI: 228052600.

Date/timePositionNaut miles runAvg speedWind from/ knotsBaromVisibWave heightAir tempDewpointWater temp
2018-Jun-17 04:53N 45°55' W 000°57'2 4.9
2018-Jun-17 04:30N 45°56' W 000°60'3 5.7
2018-Jun-17 04:00N 45°58' W 001°01'3 6.8
2018-Jun-17 03:30N 45°58' W 001°05'4 7.3
2018-Jun-17 03:00N 45°60' W 001°10'1 1.8
2018-Jun-17 02:30N 46°00' W 001°11'0 0.0
2018-Jun-17 02:00N 46°00' W 001°11'0 0.0
2018-Jun-17 01:30N 46°00' W 001°11'0 0.0
2018-Jun-17 01:00N 46°00' W 001°11'0 0.1
2018-Jun-17 00:24N 46°00' W 001°11'0 0.1
2018-Jun-17 00:00N 46°00' W 001°11'0 0.0
2018-Jun-16 23:30N 46°00' W 001°11'0 0.0
2018-Jun-16 23:00N 46°00' W 001°11'0 0.0
2018-Jun-16 22:30N 46°00' W 001°11'0 0.0
2018-Jun-16 21:57N 46°00' W 001°11'0 0.0
2018-Jun-16 21:27N 46°00' W 001°11'0 0.1
2018-Jun-16 21:00N 46°00' W 001°11'0 0.1
2018-Jun-16 20:30N 46°00' W 001°11'0 0.0
2018-Jun-16 20:00N 46°00' W 001°11'0 0.0
2018-Jun-16 19:30N 46°00' W 001°11'0 0.1
2018-Jun-16 19:00N 46°00' W 001°11'0 0.1
2018-Jun-16 18:30N 46°00' W 001°11'0 0.0
2018-Jun-16 17:57N 46°00' W 001°11'0 0.0
2018-Jun-16 17:30N 46°00' W 001°11'0 0.0
2018-Jun-16 17:00N 46°00' W 001°11'0 0.0
2018-Jun-16 16:27N 46°00' W 001°11'0 0.0
2018-Jun-16 15:57N 46°00' W 001°11'0 0.0
2018-Jun-16 15:30N 46°00' W 001°11'0 0.0
2018-Jun-16 14:54N 46°00' W 001°11'0 0.0
2018-Jun-16 14:21N 46°00' W 001°11'0 0.0
2018-Jun-16 14:00N 46°00' W 001°11'0 0.0
2018-Jun-16 13:30N 46°00' W 001°11'0 0.0
2018-Jun-16 13:00N 46°00' W 001°11'0 0.0
2018-Jun-16 12:30N 46°00' W 001°11'0 0.0
2018-Jun-16 12:00N 46°00' W 001°11'0 0.1
2018-Jun-16 11:24N 46°00' W 001°11'0 0.1
2018-Jun-16 11:00N 46°00' W 001°11'0 0.1
2018-Jun-16 10:30N 46°00' W 001°11'0 0.0
2018-Jun-16 09:57N 46°00' W 001°11'0 0.0
2018-Jun-16 09:30N 46°00' W 001°11'0 0.0
2018-Jun-16 09:00N 46°00' W 001°11'0 0.1
2018-Jun-16 08:27N 46°00' W 001°11'0 0.0
2018-Jun-16 07:57N 46°00' W 001°11'0 0.0
2018-Jun-16 07:27N 46°00' W 001°11'0 0.1
2018-Jun-16 06:54N 46°00' W 001°11'0 0.0
2018-Jun-16 06:30N 46°00' W 001°11'0 0.0
2018-Jun-16 06:00N 46°00' W 001°11'0 0.0
2018-Jun-16 05:30N 46°00' W 001°11'0 0.0
2018-Jun-16 05:00N 46°00' W 001°11'0 0.0
2018-Jun-16 04:30N 46°00' W 001°11'0 0.0
2018-Jun-16 03:57N 46°00' W 001°11'0 0.0
2018-Jun-16 03:30N 46°00' W 001°11'0 0.0
2018-Jun-16 03:00N 46°00' W 001°11'0 0.0
2018-Jun-16 02:30N 46°00' W 001°11'0 0.0
2018-Jun-16 02:00N 46°00' W 001°11'0 0.0
2018-Jun-16 01:30N 46°00' W 001°11'0 0.0
2018-Jun-16 01:00N 46°00' W 001°11'0 0.0
2018-Jun-16 00:30N 46°00' W 001°11'0 0.0
2018-Jun-16 00:00N 46°00' W 001°11'0 0.0
2018-Jun-15 23:30N 46°00' W 001°11'0 0.1
2018-Jun-15 22:57N 46°00' W 001°11'0 0.0
2018-Jun-15 22:27N 46°00' W 001°11'0 0.0
2018-Jun-15 22:00N 46°00' W 001°11'0 0.0
2018-Jun-15 21:30N 46°00' W 001°11'0 0.0
2018-Jun-15 21:00N 46°00' W 001°11'0 0.0
2018-Jun-15 20:30N 46°00' W 001°11'0 0.0
2018-Jun-15 20:00N 46°00' W 001°11'0 0.0
2018-Jun-15 19:30N 46°00' W 001°11'0 0.0
2018-Jun-15 19:00N 46°00' W 001°11'0 0.1
2018-Jun-15 18:30N 46°00' W 001°11'0 0.0
2018-Jun-15 17:42N 46°00' W 001°11'0 0.0
2018-Jun-15 17:30N 46°00' W 001°11'0 0.0
2018-Jun-15 17:00N 46°00' W 001°11'0 0.0
2018-Jun-15 16:30N 46°00' W 001°11'0 0.0
2018-Jun-15 16:00N 46°00' W 001°11'0 0.0
2018-Jun-15 15:30N 46°00' W 001°11'0 0.0
2018-Jun-15 15:00N 46°00' W 001°11'0 0.0
2018-Jun-15 14:30N 46°00' W 001°11'0 0.0
2018-Jun-15 14:00N 46°00' W 001°11'0 0.0
2018-Jun-15 13:30N 46°00' W 001°11'0 0.0
2018-Jun-15 12:57N 46°00' W 001°11'0 0.0
2018-Jun-15 12:30N 46°00' W 001°11'0 0.0
2018-Jun-15 11:57N 46°00' W 001°11'0 0.0
2018-Jun-15 11:30N 46°00' W 001°11'0 0.1
2018-Jun-15 11:00N 46°00' W 001°11'0 0.1
2018-Jun-15 10:30N 46°00' W 001°11'0 0.1
2018-Jun-15 10:00N 46°00' W 001°11'1 2.6
2018-Jun-15 09:30N 46°01' W 001°13'1 2.7
2018-Jun-15 09:01N 46°02' W 001°14'3 5.4
2018-Jun-15 08:30N 46°04' W 001°16'3 5.7
2018-Jun-15 08:00N 46°05' W 001°20'3 5.4
2018-Jun-15 07:31N 46°05' W 001°24'2 4.9
2018-Jun-15 07:00N 46°05' W 001°27'3 5.7
2018-Jun-15 06:30N 46°04' W 001°31'3 5.8
2018-Jun-15 06:01N 46°01' W 001°31'25 6.0
2018-Jun-15 01:55N 45°37' W 001°23'2 4.4
2018-Jun-15 01:30N 45°37' W 001°21'3 6.3
2018-Jun-15 00:58N 45°39' W 001°16'3 6.5
2018-Jun-15 00:30N 45°40' W 001°12'4 7.3
2018-Jun-15 00:00N 45°39' W 001°08'4 8.3
2018-Jun-14 23:30N 45°35' W 001°04'4 8.4
2018-Jun-14 23:00N 45°32' W 001°00'510.4
2018-Jun-14 22:30N 45°28' W 000°55'  
2018-Jun-08 10:17N 45°13' W 000°44'3 9.6
2018-Jun-08 09:57N 45°16' W 000°45'4 9.6
2018-Jun-08 09:30N 45°20' W 000°47'5 9.5
2018-Jun-08 09:00N 45°24' W 000°51'5 9.3
2018-Jun-08 08:30N 45°28' W 000°55'5 9.2
2018-Jun-08 08:00N 45°31' W 000°59'4 8.2
2018-Jun-08 07:30N 45°34' W 001°03'3 7.1
2018-Jun-08 07:00N 45°37' W 001°06'3 6.3
2018-Jun-08 06:30N 45°39' W 001°09'3 5.7
2018-Jun-08 05:59N 45°40' W 001°14'3 5.8
2018-Jun-08 05:29N 45°38' W 001°17'2 4.7
2018-Jun-08 04:58N 45°37' W 001°20'5 3.6
2018-Jun-08 03:35N 45°40' W 001°26'1 5.5
2018-Jun-08 03:25N 45°41' W 001°27'3 5.6
2018-Jun-08 02:50N 45°44' W 001°29'5 5.7
2018-Jun-08 02:02N 45°48' W 001°31'2 5.7
2018-Jun-08 01:40N 45°50' W 001°32'3 4.7
2018-Jun-08 01:02N 45°53' W 001°33'0 0.3
2018-Jun-08 00:58N 45°53' W 001°33'0 0.2
2018-Jun-08 00:30N 45°53' W 001°33'0 0.3
2018-Jun-08 00:00N 45°53' W 001°33'1 0.4
2018-Jun-07 20:51N 45°52' W 001°33'7 2.0
2018-Jun-07 17:26N 45°58' W 001°36'1 3.3
2018-Jun-07 17:00N 45°60' W 001°37'2 3.3
2018-Jun-07 16:30N 46°01' W 001°37'3 5.4
2018-Jun-07 16:00N 46°03' W 001°34'3 5.7
2018-Jun-07 15:30N 46°04' W 001°31'3 6.1
2018-Jun-07 15:00N 46°05' W 001°27'3 6.1
2018-Jun-07 14:30N 46°07' W 001°23'1 2.3
2018-Jun-07 14:00N 46°07' W 001°21'1 1.6
2018-Jun-07 13:30N 46°07' W 001°22'3 6.2
2018-Jun-07 13:00N 46°08' W 001°27'3 6.0
2018-Jun-07 12:30N 46°09' W 001°31'3 6.3
2018-Jun-07 12:00N 46°10' W 001°35'3 6.4
2018-Jun-07 11:30N 46°11' W 001°39'4 6.3
2018-Jun-07 10:49N 46°13' W 001°45'2 4.7
2018-Jun-07 10:29N 46°14' W 001°47'2 4.3
2018-Jun-07 10:00N 46°15' W 001°50'2 4.4
2018-Jun-07 09:30N 46°16' W 001°53'3 4.6
2018-Jun-07 08:54N 46°17' W 001°56'1 2.3
2018-Jun-07 08:28N 46°18' W 001°57'1 3.2
2018-Jun-07 08:00N 46°18' W 001°59'3 4.1
2018-Jun-07 07:10N 46°20' W 002°03'1 4.7
2018-Jun-07 07:00N 46°21' W 002°04'3 5.1
2018-Jun-07 06:30N 46°22' W 002°08'2 3.7
2018-Jun-07 06:00N 46°23' W 002°10'2 3.7
2018-Jun-07 05:27N 46°24' W 002°12'  
Track history (hours):
 
Tides and Currents Weather Stations Pressure Air Temp Water Temp Dewpoint Dewpoint Depression Visibility Wind Speed Wind Dir Waves Ship Positions

L'Hermione (France)

Ship's website: http://www.seaformation.com/#!follow-hermione/c6gz

Last reported at 2018-Jun-17 04:53 UTC. Time now 2018-Dec-12 06:28 UTC.
Position N 45°55' W 000°57'.
Warning: this ship's position is months out of date.

Length 66 m; draft 4.8 m.

Type: Sailing vessel. MMSI: 228052600.

Date/timePositionNaut miles runAvg speedWind from/ knotsBaromVisibWave heightAir tempDewpointWater temp
2018-Jun-17 04:53N 45°55' W 000°57'2 4.9
2018-Jun-17 04:30N 45°56' W 000°60'3 5.7
2018-Jun-17 04:00N 45°58' W 001°01'3 6.8
2018-Jun-17 03:30N 45°58' W 001°05'4 7.3
2018-Jun-17 03:00N 45°60' W 001°10'1 1.8
2018-Jun-17 02:30N 46°00' W 001°11'0 0.0
2018-Jun-17 02:00N 46°00' W 001°11'0 0.0
2018-Jun-17 01:30N 46°00' W 001°11'0 0.0
2018-Jun-17 01:00N 46°00' W 001°11'0 0.1
2018-Jun-17 00:24N 46°00' W 001°11'0 0.1
2018-Jun-17 00:00N 46°00' W 001°11'0 0.0
2018-Jun-16 23:30N 46°00' W 001°11'0 0.0
2018-Jun-16 23:00N 46°00' W 001°11'0 0.0
2018-Jun-16 22:30N 46°00' W 001°11'0 0.0
2018-Jun-16 21:57N 46°00' W 001°11'0 0.0
2018-Jun-16 21:27N 46°00' W 001°11'0 0.1
2018-Jun-16 21:00N 46°00' W 001°11'0 0.1
2018-Jun-16 20:30N 46°00' W 001°11'0 0.0
2018-Jun-16 20:00N 46°00' W 001°11'0 0.0
2018-Jun-16 19:30N 46°00' W 001°11'0 0.1
2018-Jun-16 19:00N 46°00' W 001°11'0 0.1
2018-Jun-16 18:30N 46°00' W 001°11'0 0.0
2018-Jun-16 17:57N 46°00' W 001°11'0 0.0
2018-Jun-16 17:30N 46°00' W 001°11'0 0.0
2018-Jun-16 17:00N 46°00' W 001°11'0 0.0
2018-Jun-16 16:27N 46°00' W 001°11'0 0.0
2018-Jun-16 15:57N 46°00' W 001°11'0 0.0
2018-Jun-16 15:30N 46°00' W 001°11'0 0.0
2018-Jun-16 14:54N 46°00' W 001°11'0 0.0
2018-Jun-16 14:21N 46°00' W 001°11'0 0.0
2018-Jun-16 14:00N 46°00' W 001°11'0 0.0
2018-Jun-16 13:30N 46°00' W 001°11'0 0.0
2018-Jun-16 13:00N 46°00' W 001°11'0 0.0
2018-Jun-16 12:30N 46°00' W 001°11'0 0.0
2018-Jun-16 12:00N 46°00' W 001°11'0 0.1
2018-Jun-16 11:24N 46°00' W 001°11'0 0.1
2018-Jun-16 11:00N 46°00' W 001°11'0 0.1
2018-Jun-16 10:30N 46°00' W 001°11'0 0.0
2018-Jun-16 09:57N 46°00' W 001°11'0 0.0
2018-Jun-16 09:30N 46°00' W 001°11'0 0.0
2018-Jun-16 09:00N 46°00' W 001°11'0 0.1
2018-Jun-16 08:27N 46°00' W 001°11'0 0.0
2018-Jun-16 07:57N 46°00' W 001°11'0 0.0
2018-Jun-16 07:27N 46°00' W 001°11'0 0.1
2018-Jun-16 06:54N 46°00' W 001°11'0 0.0
2018-Jun-16 06:30N 46°00' W 001°11'0 0.0
2018-Jun-16 06:00N 46°00' W 001°11'0 0.0
2018-Jun-16 05:30N 46°00' W 001°11'0 0.0
2018-Jun-16 05:00N 46°00' W 001°11'0 0.0
2018-Jun-16 04:30N 46°00' W 001°11'0 0.0
2018-Jun-16 03:57N 46°00' W 001°11'0 0.0
2018-Jun-16 03:30N 46°00' W 001°11'0 0.0
2018-Jun-16 03:00N 46°00' W 001°11'0 0.0
2018-Jun-16 02:30N 46°00' W 001°11'0 0.0
2018-Jun-16 02:00N 46°00' W 001°11'0 0.0
2018-Jun-16 01:30N 46°00' W 001°11'0 0.0
2018-Jun-16 01:00N 46°00' W 001°11'0 0.0
2018-Jun-16 00:30N 46°00' W 001°11'0 0.0
2018-Jun-16 00:00N 46°00' W 001°11'0 0.0
2018-Jun-15 23:30N 46°00' W 001°11'0 0.1
2018-Jun-15 22:57N 46°00' W 001°11'0 0.0
2018-Jun-15 22:27N 46°00' W 001°11'0 0.0
2018-Jun-15 22:00N 46°00' W 001°11'0 0.0
2018-Jun-15 21:30N 46°00' W 001°11'0 0.0
2018-Jun-15 21:00N 46°00' W 001°11'0 0.0
2018-Jun-15 20:30N 46°00' W 001°11'0 0.0
2018-Jun-15 20:00N 46°00' W 001°11'0 0.0
2018-Jun-15 19:30N 46°00' W 001°11'0 0.0
2018-Jun-15 19:00N 46°00' W 001°11'0 0.1
2018-Jun-15 18:30N 46°00' W 001°11'0 0.0
2018-Jun-15 17:42N 46°00' W 001°11'0 0.0
2018-Jun-15 17:30N 46°00' W 001°11'0 0.0
2018-Jun-15 17:00N 46°00' W 001°11'0 0.0
2018-Jun-15 16:30N 46°00' W 001°11'0 0.0
2018-Jun-15 16:00N 46°00' W 001°11'0 0.0
2018-Jun-15 15:30N 46°00' W 001°11'0 0.0
2018-Jun-15 15:00N 46°00' W 001°11'0 0.0
2018-Jun-15 14:30N 46°00' W 001°11'0 0.0
2018-Jun-15 14:00N 46°00' W 001°11'0 0.0
2018-Jun-15 13:30N 46°00' W 001°11'0 0.0
2018-Jun-15 12:57N 46°00' W 001°11'0 0.0
2018-Jun-15 12:30N 46°00' W 001°11'0 0.0
2018-Jun-15 11:57N 46°00' W 001°11'0 0.0
2018-Jun-15 11:30N 46°00' W 001°11'0 0.1
2018-Jun-15 11:00N 46°00' W 001°11'0 0.1
2018-Jun-15 10:30N 46°00' W 001°11'0 0.1
2018-Jun-15 10:00N 46°00' W 001°11'1 2.6
2018-Jun-15 09:30N 46°01' W 001°13'1 2.7
2018-Jun-15 09:01N 46°02' W 001°14'3 5.4
2018-Jun-15 08:30N 46°04' W 001°16'3 5.7
2018-Jun-15 08:00N 46°05' W 001°20'3 5.4
2018-Jun-15 07:31N 46°05' W 001°24'2 4.9
2018-Jun-15 07:00N 46°05' W 001°27'3 5.7
2018-Jun-15 06:30N 46°04' W 001°31'3 5.8
2018-Jun-15 06:01N 46°01' W 001°31'25 6.0
2018-Jun-15 01:55N 45°37' W 001°23'2 4.4
2018-Jun-15 01:30N 45°37' W 001°21'3 6.3
2018-Jun-15 00:58N 45°39' W 001°16'3 6.5
2018-Jun-15 00:30N 45°40' W 001°12'4 7.3
2018-Jun-15 00:00N 45°39' W 001°08'4 8.3
2018-Jun-14 23:30N 45°35' W 001°04'4 8.4
2018-Jun-14 23:00N 45°32' W 001°00'510.4
2018-Jun-14 22:30N 45°28' W 000°55'  
2018-Jun-08 10:17N 45°13' W 000°44'3 9.6
2018-Jun-08 09:57N 45°16' W 000°45'4 9.6
2018-Jun-08 09:30N 45°20' W 000°47'5 9.5
2018-Jun-08 09:00N 45°24' W 000°51'5 9.3
2018-Jun-08 08:30N 45°28' W 000°55'5 9.2
2018-Jun-08 08:00N 45°31' W 000°59'4 8.2
2018-Jun-08 07:30N 45°34' W 001°03'3 7.1
2018-Jun-08 07:00N 45°37' W 001°06'3 6.3
2018-Jun-08 06:30N 45°39' W 001°09'3 5.7
2018-Jun-08 05:59N 45°40' W 001°14'3 5.8
2018-Jun-08 05:29N 45°38' W 001°17'2 4.7
2018-Jun-08 04:58N 45°37' W 001°20'5 3.6
2018-Jun-08 03:35N 45°40' W 001°26'1 5.5
2018-Jun-08 03:25N 45°41' W 001°27'3 5.6
2018-Jun-08 02:50N 45°44' W 001°29'5 5.7
2018-Jun-08 02:02N 45°48' W 001°31'2 5.7
2018-Jun-08 01:40N 45°50' W 001°32'3 4.7
2018-Jun-08 01:02N 45°53' W 001°33'0 0.3
2018-Jun-08 00:58N 45°53' W 001°33'0 0.2
2018-Jun-08 00:30N 45°53' W 001°33'0 0.3
2018-Jun-08 00:00N 45°53' W 001°33'1 0.4
2018-Jun-07 20:51N 45°52' W 001°33'7 2.0
2018-Jun-07 17:26N 45°58' W 001°36'1 3.3
2018-Jun-07 17:00N 45°60' W 001°37'2 3.3
2018-Jun-07 16:30N 46°01' W 001°37'3 5.4
2018-Jun-07 16:00N 46°03' W 001°34'3 5.7
2018-Jun-07 15:30N 46°04' W 001°31'3 6.1
2018-Jun-07 15:00N 46°05' W 001°27'3 6.1
2018-Jun-07 14:30N 46°07' W 001°23'1 2.3
2018-Jun-07 14:00N 46°07' W 001°21'1 1.6
2018-Jun-07 13:30N 46°07' W 001°22'3 6.2
2018-Jun-07 13:00N 46°08' W 001°27'3 6.0
2018-Jun-07 12:30N 46°09' W 001°31'3 6.3
2018-Jun-07 12:00N 46°10' W 001°35'3 6.4
2018-Jun-07 11:30N 46°11' W 001°39'4 6.3
2018-Jun-07 10:49N 46°13' W 001°45'2 4.7
2018-Jun-07 10:29N 46°14' W 001°47'2 4.3
2018-Jun-07 10:00N 46°15' W 001°50'2 4.4
2018-Jun-07 09:30N 46°16' W 001°53'3 4.6
2018-Jun-07 08:54N 46°17' W 001°56'1 2.3
2018-Jun-07 08:28N 46°18' W 001°57'1 3.2
2018-Jun-07 08:00N 46°18' W 001°59'3 4.1
2018-Jun-07 07:10N 46°20' W 002°03'1 4.7
2018-Jun-07 07:00N 46°21' W 002°04'3 5.1
2018-Jun-07 06:30N 46°22' W 002°08'2 3.7
2018-Jun-07 06:00N 46°23' W 002°10'2 3.7
2018-Jun-07 05:27N 46°24' W 002°12'  

Dump ship's entire track history